Time;durP1;ratioP1;P1;durP2;ratioP2;P2;SDS_P1;SDS_P2;PMS_P1;PMS_P2;Temp;Humidity;BMP_temperature;BMP_pressure;BME280_temperature;BME280_humidity;BME280_pressure;Samples;Min_cycle;Max_cycle;Signal;HPM_P1;HPM_P2
2021/08/20 00:01:01;;;;;;;2.55;2.20;;;20.30;75.70;;;;;;6250017;28;20418;-80
2021/08/20 00:04:06;;;;;;;4.00;1.70;;;20.30;75.80;;;;;;6250360;28;20473;-80
2021/08/20 00:07:09;;;;;;;4.85;1.92;;;20.30;76.00;;;;;;6249886;28;20403;-80
2021/08/20 00:10:12;;;;;;;3.33;1.67;;;20.30;75.60;;;;;;6246981;28;20535;-80
2021/08/20 00:13:14;;;;;;;3.50;1.87;;;20.30;75.30;;;;;;6230693;28;20466;-80
2021/08/20 00:16:15;;;;;;;5.90;1.95;;;20.30;73.80;;;;;;6249076;28;20516;-80
2021/08/20 00:19:17;;;;;;;3.70;1.98;;;20.30;73.80;;;;;;6249472;28;20956;-81
2021/08/20 00:22:22;;;;;;;7.90;2.13;;;20.40;74.40;;;;;;6249927;28;20949;-81
2021/08/20 00:25:24;;;;;;;3.22;2.13;;;20.40;74.80;;;;;;6248466;28;20466;-80
2021/08/20 00:28:25;;;;;;;6.27;1.80;;;20.30;75.30;;;;;;6248739;28;20929;-81
2021/08/20 00:31:27;;;;;;;3.83;1.92;;;20.40;74.80;;;;;;6249515;28;20545;-80
2021/08/20 00:34:29;;;;;;;3.78;1.95;;;20.40;74.30;;;;;;6249304;28;20510;-80
2021/08/20 00:37:33;;;;;;;5.40;2.20;;;20.40;74.10;;;;;;6248773;28;20573;-80
2021/08/20 00:40:35;;;;;;;4.00;1.95;;;20.40;74.90;;;;;;6248687;28;20411;-80
2021/08/20 00:43:37;;;;;;;2.92;2.00;;;20.40;74.40;;;;;;6248475;28;20498;-80
2021/08/20 00:46:40;;;;;;;4.57;1.80;;;20.40;75.00;;;;;;6248659;28;20439;-80
2021/08/20 00:49:43;;;;;;;5.00;1.80;;;20.40;74.80;;;;;;6248097;28;20896;-81
2021/08/20 00:52:46;;;;;;;2.58;2.10;;;20.30;74.60;;;;;;6248642;28;20423;-81
2021/08/20 00:55:48;;;;;;;4.15;1.88;;;20.30;75.40;;;;;;6248693;28;20488;-80
2021/08/20 00:58:51;;;;;;;3.33;2.20;;;20.30;75.30;;;;;;6247698;28;20537;-80
2021/08/20 01:01:53;;;;;;;3.55;1.85;;;20.20;75.30;;;;;;6248404;28;20521;-81
2021/08/20 01:04:55;;;;;;;6.32;2.60;;;20.20;75.80;;;;;;6247914;28;20570;-80
2021/08/20 01:07:59;;;;;;;4.07;2.05;;;20.10;75.80;;;;;;6247925;28;20478;-80
2021/08/20 01:11:02;;;;;;;4.40;2.10;;;20.10;76.00;;;;;;6248567;28;20545;-80
2021/08/20 01:14:05;;;;;;;4.68;2.05;;;20.10;75.80;;;;;;6247980;28;21036;-80
2021/08/20 01:17:09;;;;;;;5.72;2.22;;;20.10;75.50;;;;;;6247298;28;20461;-79
2021/08/20 01:20:12;;;;;;;3.35;1.92;;;20.10;75.30;;;;;;6247847;28;20534;-81
2021/08/20 01:23:16;;;;;;;7.25;1.85;;;20.10;75.80;;;;;;6247897;28;20500;-79
2021/08/20 01:26:19;;;;;;;2.63;1.70;;;20.10;76.10;;;;;;6248165;28;20434;-81
2021/08/20 01:29:21;;;;;;;3.10;1.90;;;20.00;75.50;;;;;;6247199;28;20502;-80
2021/08/20 01:32:23;;;;;;;3.95;2.15;;;20.00;75.80;;;;;;6247823;28;20421;-81
2021/08/20 01:35:25;;;;;;;3.97;1.80;;;19.90;76.30;;;;;;6247545;28;20486;-81
2021/08/20 01:38:28;;;;;;;3.28;2.00;;;19.80;76.40;;;;;;6248945;28;20506;-80
2021/08/20 01:41:32;;;;;;;6.95;2.03;;;19.80;76.60;;;;;;6247791;28;20458;-80
2021/08/20 01:44:33;;;;;;;3.87;2.03;;;19.80;76.90;;;;;;6247847;28;21014;-81
2021/08/20 01:47:35;;;;;;;2.40;2.00;;;19.80;76.60;;;;;;6247759;28;20499;-81
2021/08/20 01:50:39;;;;;;;2.70;1.95;;;19.80;76.30;;;;;;6249044;28;20458;-81
2021/08/20 01:53:42;;;;;;;2.10;1.85;;;19.80;76.30;;;;;;6247938;28;20801;-82
2021/08/20 01:56:47;;;;;;;1.60;1.48;;;19.80;75.40;;;;;;6247658;28;20430;-80
2021/08/20 01:59:49;;;;;;;3.78;2.00;;;19.80;75.60;;;;;;6246583;28;20434;-81
2021/08/20 02:02:51;;;;;;;3.13;1.95;;;19.80;75.20;;;;;;6245800;28;20438;-82
2021/08/20 02:05:53;;;;;;;4.88;2.28;;;19.80;75.80;;;;;;6247630;28;20446;-80
2021/08/20 02:08:55;;;;;;;3.90;1.87;;;19.90;75.40;;;;;;6247177;28;20423;-80
2021/08/20 02:11:58;;;;;;;3.30;2.15;;;19.80;75.60;;;;;;6247233;28;20987;-81
2021/08/20 02:15:00;;;;;;;3.35;1.83;;;19.80;75.50;;;;;;6247429;28;20466;-80
2021/08/20 02:18:02;;;;;;;3.60;2.00;;;19.80;75.20;;;;;;6248005;28;20922;-81
2021/08/20 02:21:04;;;;;;;2.38;1.85;;;19.80;75.30;;;;;;6247159;28;20418;-81
2021/08/20 02:24:06;;;;;;;6.20;2.05;;;19.80;75.30;;;;;;6247629;28;20411;-80
2021/08/20 02:27:09;;;;;;;2.60;1.88;;;19.80;75.10;;;;;;6246845;28;20901;-80
2021/08/20 02:30:12;;;;;;;5.13;2.15;;;19.80;75.10;;;;;;6247001;28;20434;-80
2021/08/20 02:33:14;;;;;;;4.68;2.13;;;19.80;75.10;;;;;;6246477;28;20887;-81
2021/08/20 02:36:16;;;;;;;5.38;2.45;;;19.80;75.40;;;;;;6246966;28;20450;-80
2021/08/20 02:39:17;;;;;;;3.00;2.20;;;19.80;75.40;;;;;;6246552;28;20410;-80
2021/08/20 02:42:21;;;;;;;2.50;1.63;;;19.70;75.40;;;;;;6247767;28;20522;-80
2021/08/20 02:45:22;;;;;;;4.43;2.20;;;19.70;75.50;;;;;;6246057;28;20617;-80
2021/08/20 02:48:24;;;;;;;3.60;2.20;;;19.80;76.00;;;;;;6247008;28;20421;-79
2021/08/20 02:51:26;;;;;;;3.63;1.70;;;19.80;75.80;;;;;;6247007;28;20412;-80
2021/08/20 02:54:28;;;;;;;2.10;1.73;;;19.80;75.60;;;;;;6246174;28;20438;-80
2021/08/20 02:57:31;;;;;;;7.28;2.30;;;19.80;75.70;;;;;;6245776;28;20546;-80
2021/08/20 03:00:33;;;;;;;3.58;1.80;;;19.80;75.60;;;;;;6245607;28;20494;-81
2021/08/20 03:03:35;;;;;;;3.08;1.45;;;19.80;75.70;;;;;;6244850;28;20913;-80
2021/08/20 03:06:37;;;;;;;4.13;1.88;;;19.80;75.50;;;;;;6245962;28;20532;-80
2021/08/20 03:09:39;;;;;;;2.45;1.85;;;19.80;76.20;;;;;;6245414;28;20502;-81
2021/08/20 03:12:42;;;;;;;3.37;1.93;;;19.70;75.90;;;;;;6245514;28;20849;-80
2021/08/20 03:15:44;;;;;;;2.00;1.80;;;19.70;75.90;;;;;;6250349;28;20419;-81
2021/08/20 03:18:46;;;;;;;3.90;1.70;;;19.70;75.90;;;;;;6250783;28;20516;-79
2021/08/20 03:21:48;;;;;;;2.70;1.77;;;19.70;76.00;;;;;;6250656;28;20591;-79
2021/08/20 03:24:49;;;;;;;3.67;2.03;;;19.70;75.80;;;;;;6249984;28;20419;-80
2021/08/20 03:27:53;;;;;;;2.47;1.93;;;19.70;76.00;;;;;;6250251;28;20617;-80
2021/08/20 03:30:55;;;;;;;2.80;1.73;;;19.60;76.00;;;;;;6249921;28;20938;-80
2021/08/20 03:33:57;;;;;;;2.10;1.92;;;19.60;76.40;;;;;;6251048;28;20517;-81
2021/08/20 03:36:58;;;;;;;2.50;1.63;;;19.60;75.80;;;;;;6250401;28;20414;-80
2021/08/20 03:40:00;;;;;;;4.30;2.03;;;19.70;75.00;;;;;;6250681;28;20411;-80
2021/08/20 03:43:03;;;;;;;3.80;1.70;;;19.70;74.80;;;;;;6250571;28;20431;-80
2021/08/20 03:46:09;;;;;;;4.03;2.10;;;19.70;75.00;;;;;;6250804;28;20501;-81
2021/08/20 03:49:10;;;;;;;2.80;1.90;;;19.70;74.90;;;;;;6250646;28;20415;-81
2021/08/20 03:52:12;;;;;;;3.80;2.35;;;19.60;74.60;;;;;;6250010;28;20771;-81
2021/08/20 03:55:14;;;;;;;5.55;2.03;;;19.60;74.70;;;;;;6249925;28;20457;-81
2021/08/20 03:58:18;;;;;;;6.50;2.00;;;19.60;75.20;;;;;;6250728;28;21040;-80
2021/08/20 04:01:20;;;;;;;2.40;2.17;;;19.60;75.00;;;;;;6249817;28;20553;-80
2021/08/20 04:04:22;;;;;;;4.47;1.97;;;19.60;74.80;;;;;;6248589;28;20502;-81
2021/08/20 04:07:24;;;;;;;5.63;2.25;;;19.60;75.10;;;;;;6250035;28;20493;-80
2021/08/20 04:10:26;;;;;;;2.35;1.65;;;19.60;74.60;;;;;;6250632;28;20473;-80
2021/08/20 04:13:29;;;;;;;3.90;2.23;;;19.60;74.70;;;;;;6249143;28;20491;-80
2021/08/20 04:16:32;;;;;;;3.20;1.90;;;19.70;74.10;;;;;;6249431;28;20499;-81
2021/08/20 04:19:33;;;;;;;5.25;1.85;;;19.60;73.80;;;;;;6250174;28;20430;-80
2021/08/20 04:22:36;;;;;;;3.70;1.58;;;19.70;73.80;;;;;;6249880;28;20462;-81
2021/08/20 04:25:38;;;;;;;3.63;2.47;;;19.70;73.60;;;;;;6247865;28;20473;-80
2021/08/20 04:28:41;;;;;;;4.20;2.00;;;19.70;73.80;;;;;;6249664;28;20465;-81
2021/08/20 04:31:43;;;;;;;10.47;3.20;;;19.70;74.20;;;;;;6250599;28;20462;-80
2021/08/20 04:34:45;;;;;;;3.55;2.15;;;19.70;74.10;;;;;;6251927;28;20445;-80
2021/08/20 04:37:47;;;;;;;3.58;2.10;;;19.70;74.70;;;;;;6225273;28;20417;-80
2021/08/20 04:40:48;;;;;;;4.22;2.15;;;19.60;74.80;;;;;;6241814;28;20450;-80
2021/08/20 04:43:52;;;;;;;4.63;2.00;;;19.60;75.00;;;;;;6249345;28;20946;-81
2021/08/20 04:46:53;;;;;;;3.97;2.35;;;19.70;74.70;;;;;;6248986;28;20913;-80
2021/08/20 04:49:55;;;;;;;4.37;2.10;;;19.70;75.00;;;;;;6249359;28;20547;-80
2021/08/20 04:52:58;;;;;;;2.65;2.03;;;19.70;74.20;;;;;;6249400;28;21040;-80
2021/08/20 04:56:00;;;;;;;2.58;1.65;;;19.70;74.20;;;;;;6248794;28;21127;-80
2021/08/20 04:59:03;;;;;;;4.88;1.90;;;19.70;74.30;;;;;;6249334;28;20466;-80
2021/08/20 05:02:06;;;;;;;9.00;2.20;;;19.70;74.30;;;;;;6249727;28;20442;-80
2021/08/20 05:05:09;;;;;;;2.67;1.65;;;19.70;74.50;;;;;;6250396;28;20423;-80
2021/08/20 05:08:11;;;;;;;3.90;2.33;;;19.70;74.20;;;;;;6253397;28;20445;-81
2021/08/20 05:11:13;;;;;;;3.33;1.97;;;19.60;74.20;;;;;;6254134;28;20534;-79
2021/08/20 05:14:16;;;;;;;3.58;2.60;;;19.70;74.20;;;;;;6253530;28;20906;-79
2021/08/20 05:17:18;;;;;;;4.43;2.27;;;19.70;74.80;;;;;;6253013;28;20620;-80
2021/08/20 05:20:20;;;;;;;6.45;1.90;;;19.70;74.00;;;;;;6253006;28;20419;-79
2021/08/20 05:23:22;;;;;;;3.70;2.17;;;19.70;73.90;;;;;;6253428;28;20507;-79
2021/08/20 05:26:25;;;;;;;3.28;1.73;;;19.70;74.30;;;;;;6253008;28;20525;-80
2021/08/20 05:29:28;;;;;;;6.20;1.92;;;19.80;74.00;;;;;;6253202;28;20454;-80
2021/08/20 05:32:30;;;;;;;4.00;2.53;;;19.80;74.50;;;;;;6253128;28;20438;-80
2021/08/20 05:35:34;;;;;;;3.55;2.10;;;19.90;74.10;;;;;;6252919;28;20499;-80
2021/08/20 05:38:36;;;;;;;7.53;2.80;;;19.90;74.00;;;;;;6253300;28;20431;-79
2021/08/20 05:41:38;;;;;;;3.70;2.10;;;20.00;74.40;;;;;;6253483;28;20423;-79
2021/08/20 05:44:41;;;;;;;4.55;2.75;;;20.00;73.70;;;;;;6253000;28;20446;-80
2021/08/20 05:47:43;;;;;;;7.85;2.53;;;20.10;73.80;;;;;;6253372;28;20411;-79
2021/08/20 05:50:44;;;;;;;5.53;2.83;;;20.20;73.50;;;;;;6253750;28;20445;-79
2021/08/20 05:53:46;;;;;;;5.28;2.70;;;20.20;73.20;;;;;;6253294;28;20518;-79
2021/08/20 05:56:48;;;;;;;3.97;2.90;;;20.30;73.10;;;;;;6253083;28;20422;-79
2021/08/20 05:59:51;;;;;;;7.20;2.63;;;20.40;72.90;;;;;;6253175;28;20454;-79
2021/08/20 06:02:53;;;;;;;3.80;2.63;;;20.50;72.90;;;;;;6252326;28;20463;-79
2021/08/20 06:05:55;;;;;;;5.40;2.20;;;20.60;72.50;;;;;;6232303;28;20549;-79
2021/08/20 06:08:57;;;;;;;6.60;3.00;;;20.80;72.30;;;;;;6245398;28;21097;-79
2021/08/20 06:11:58;;;;;;;7.50;3.00;;;20.90;71.90;;;;;;6228913;28;20445;-80
2021/08/20 06:15:02;;;;;;;6.78;3.10;;;21.00;71.80;;;;;;6246230;28;20914;-79
2021/08/20 06:18:04;;;;;;;6.28;3.53;;;21.10;71.50;;;;;;6253227;28;20513;-79
2021/08/20 06:21:05;;;;;;;5.25;2.90;;;21.20;71.20;;;;;;6252268;28;20419;-79
2021/08/20 06:24:07;;;;;;;3.85;2.88;;;21.20;70.70;;;;;;6251617;28;20910;-79
2021/08/20 06:27:09;;;;;;;5.45;2.95;;;21.30;70.70;;;;;;6251842;28;20443;-79
2021/08/20 06:30:13;;;;;;;4.43;3.05;;;21.40;70.80;;;;;;6253399;28;20435;-78
2021/08/20 06:33:15;;;;;;;6.00;3.25;;;21.40;70.50;;;;;;6250860;28;20438;-78
2021/08/20 06:36:16;;;;;;;7.13;3.50;;;21.50;70.30;;;;;;6251348;28;20438;-79
2021/08/20 06:39:18;;;;;;;4.80;3.30;;;21.70;70.00;;;;;;6252173;28;20831;-79
2021/08/20 06:42:21;;;;;;;3.47;3.07;;;21.80;70.10;;;;;;6252774;28;20556;-79
2021/08/20 06:45:24;;;;;;;5.03;3.50;;;22.00;69.50;;;;;;6252297;28;20510;-79
2021/08/20 06:48:26;;;;;;;6.85;3.40;;;22.20;68.90;;;;;;6250230;28;20525;-78
2021/08/20 06:51:28;;;;;;;6.95;3.95;;;22.40;68.40;;;;;;6244625;28;20835;-77
2021/08/20 06:54:30;;;;;;;5.83;3.67;;;22.80;66.90;;;;;;6244784;28;20501;-77
2021/08/20 06:57:32;;;;;;;4.82;3.00;;;22.90;66.50;;;;;;6245234;28;20443;-77
2021/08/20 07:00:35;;;;;;;4.55;3.38;;;23.00;66.10;;;;;;6245047;28;20549;-77
2021/08/20 07:03:37;;;;;;;6.68;4.10;;;23.10;65.30;;;;;;6246431;28;20426;-77
2021/08/20 07:06:38;;;;;;;5.93;4.00;;;23.20;65.40;;;;;;6227935;28;20475;-77
2021/08/20 07:09:40;;;;;;;6.72;4.18;;;23.30;64.80;;;;;;6244702;28;20956;-77
2021/08/20 07:12:43;;;;;;;7.43;4.30;;;23.50;64.10;;;;;;6244835;28;20494;-77
2021/08/20 07:15:46;;;;;;;6.73;4.13;;;23.60;63.90;;;;;;6244619;28;20461;-77
2021/08/20 07:18:48;;;;;;;7.43;5.03;;;23.80;63.10;;;;;;6244937;28;20434;-77
2021/08/20 07:21:50;;;;;;;6.32;4.28;;;23.90;62.60;;;;;;6245304;28;20434;-77
2021/08/20 07:24:52;;;;;;;6.47;5.00;;;24.10;62.20;;;;;;6244453;28;20465;-77
2021/08/20 07:27:54;;;;;;;6.18;4.50;;;24.40;61.10;;;;;;6245555;28;20415;-77
2021/08/20 07:30:57;;;;;;;5.90;4.82;;;24.50;60.10;;;;;;6246922;28;20462;-77
2021/08/20 07:33:59;;;;;;;5.53;4.63;;;24.70;58.70;;;;;;6247210;28;20477;-78
2021/08/20 07:37:01;;;;;;;5.53;4.13;;;24.70;58.80;;;;;;6247205;28;20443;-78
2021/08/20 07:40:03;;;;;;;8.52;5.07;;;24.80;59.40;;;;;;6247309;28;20477;-78
2021/08/20 07:43:05;;;;;;;6.33;4.90;;;24.90;59.00;;;;;;6248598;28;20560;-81
2021/08/20 07:46:08;;;;;;;5.97;4.13;;;25.00;58.00;;;;;;6250373;28;20435;-82
2021/08/20 07:49:10;;;;;;;8.15;4.75;;;25.30;58.50;;;;;;6250780;28;20486;-80
2021/08/20 07:52:12;;;;;;;5.68;4.60;;;25.60;57.90;;;;;;6251371;28;20430;-79
2021/08/20 07:55:17;;;;;;;6.15;4.65;;;25.60;57.20;;;;;;6251015;28;20419;-79
2021/08/20 07:58:18;;;;;;;7.18;4.45;;;25.60;57.30;;;;;;6250973;28;20438;-79
2021/08/20 08:01:22;;;;;;;8.13;4.82;;;25.80;57.00;;;;;;6254939;28;20435;-79
2021/08/20 08:04:24;;;;;;;4.65;3.97;;;26.00;56.00;;;;;;6255861;28;20953;-80
2021/08/20 08:07:26;;;;;;;4.90;3.95;;;26.20;55.00;;;;;;6249044;28;20423;-79
2021/08/20 08:10:28;;;;;;;5.95;4.22;;;26.40;51.50;;;;;;6255982;28;20521;-79
2021/08/20 08:13:30;;;;;;;5.53;3.63;;;26.40;52.60;;;;;;6255270;28;20415;-80
2021/08/20 08:16:34;;;;;;;3.20;2.90;;;26.70;52.60;;;;;;6255065;28;20419;-81
2021/08/20 08:19:36;;;;;;;7.70;4.25;;;27.00;49.20;;;;;;6253486;28;20930;-78
2021/08/20 08:22:38;;;;;;;6.38;3.78;;;27.40;48.50;;;;;;6256622;28;20984;-79
2021/08/20 08:25:40;;;;;;;4.22;3.15;;;27.60;48.20;;;;;;6254618;28;20419;-79
2021/08/20 08:28:42;;;;;;;4.40;3.00;;;27.90;47.70;;;;;;6255122;28;20502;-79
2021/08/20 08:31:45;;;;;;;5.38;3.20;;;28.20;46.50;;;;;;6254945;28;20917;-79
2021/08/20 08:34:47;;;;;;;6.20;3.35;;;28.10;45.50;;;;;;6255447;28;20439;-80
2021/08/20 08:37:49;;;;;;;5.18;3.08;;;28.20;45.80;;;;;;6256185;28;20469;-80
2021/08/20 08:40:51;;;;;;;4.25;3.28;;;28.20;45.80;;;;;;6257052;28;20431;-80
2021/08/20 08:43:53;;;;;;;3.45;2.83;;;28.20;45.70;;;;;;6255844;28;20419;-80
2021/08/20 08:46:56;;;;;;;4.22;2.95;;;28.00;45.80;;;;;;6253903;28;20805;-79
2021/08/20 08:49:59;;;;;;;5.05;3.08;;;27.90;45.30;;;;;;6253422;28;20565;-79
2021/08/20 08:53:01;;;;;;;5.32;3.33;;;28.00;46.30;;;;;;6254164;28;20610;-80
2021/08/20 08:56:03;;;;;;;7.05;3.92;;;27.80;45.50;;;;;;6252943;28;21008;-80
2021/08/20 08:59:05;;;;;;;4.93;3.50;;;27.60;46.50;;;;;;6253456;28;20509;-80
2021/08/20 09:02:21;;;;;;;6.40;3.13;;;27.70;46.70;;;;;;6254210;28;20568;-79
2021/08/20 09:05:23;;;;;;;5.33;3.47;;;28.00;46.90;;;;;;6253018;28;20419;-79
2021/08/20 09:08:27;;;;;;;6.67;3.20;;;28.30;46.40;;;;;;6248366;28;20593;-79
2021/08/20 09:11:29;;;;;;;6.90;3.38;;;28.60;45.40;;;;;;6227502;28;20899;-79
2021/08/20 09:14:32;;;;;;;4.88;3.55;;;28.20;45.60;;;;;;6228334;28;20519;-80
2021/08/20 09:17:36;;;;;;;5.07;3.63;;;27.90;46.40;;;;;;6228220;28;20463;-80
2021/08/20 09:20:38;;;;;;;6.10;3.60;;;27.90;46.40;;;;;;6228378;28;20459;-79
2021/08/20 09:23:40;;;;;;;3.60;3.30;;;28.30;46.10;;;;;;6227506;28;20510;-80
2021/08/20 09:26:42;;;;;;;7.07;3.80;;;28.50;44.40;;;;;;6228548;28;20487;-81
2021/08/20 09:29:55;;;;;;;6.93;4.10;;;27.90;46.30;;;;;;6227439;28;20420;-80
2021/08/20 09:32:58;;;;;;;4.50;3.47;;;27.60;46.50;;;;;;6228116;28;20417;-80
2021/08/20 09:36:01;;;;;;;5.07;3.25;;;27.60;47.30;;;;;;6226938;28;20413;-79
2021/08/20 09:39:03;;;;;;;4.60;3.30;;;28.10;45.90;;;;;;6227015;28;20587;-80
2021/08/20 09:42:13;;;;;;;6.38;4.32;;;28.70;45.50;;;;;;6228062;28;20469;-80
2021/08/20 09:45:20;;;;;;;5.07;3.75;;;29.40;43.90;;;;;;6227121;28;20498;-80
2021/08/20 09:51:52;;;;;;;5.97;3.40;;;29.50;41.70;;;;;;6336838;27;20394;-80
2021/08/20 09:54:54;;;;;;;5.25;3.78;;;29.10;43.90;;;;;;6315522;28;20446;-81
2021/08/20 09:57:55;;;;;;;6.27;3.53;;;29.30;44.30;;;;;;6292468;28;20562;-80
2021/08/20 10:00:58;;;;;;;3.28;2.97;;;29.80;43.20;;;;;;6292627;28;20416;-80
2021/08/20 10:04:05;;;;;;;3.47;3.17;;;30.10;42.60;;;;;;6292096;28;20510;-81
2021/08/20 10:07:09;;;;;;;5.38;3.33;;;30.40;41.90;;;;;;6291431;28;20495;-80
2021/08/20 10:10:11;;;;;;;8.40;3.50;;;30.70;40.10;;;;;;6279049;28;20520;-80
2021/08/20 10:13:16;;;;;;;4.90;3.22;;;30.80;39.90;;;;;;6267058;28;20503;-80
2021/08/20 10:16:18;;;;;;;5.25;2.72;;;30.70;40.30;;;;;;6267797;28;20496;-80
2021/08/20 10:19:21;;;;;;;3.87;2.77;;;30.30;40.10;;;;;;6267033;28;20470;-80
2021/08/20 10:22:26;;;;;;;4.72;2.90;;;30.00;40.60;;;;;;6267775;28;20776;-80
2021/08/20 10:25:28;;;;;;;5.95;2.70;;;29.90;41.20;;;;;;6266781;28;20473;-80
2021/08/20 10:28:32;;;;;;;6.28;2.92;;;29.40;43.10;;;;;;6267573;28;20508;-80
2021/08/20 10:31:35;;;;;;;3.58;2.50;;;29.40;41.50;;;;;;6267704;28;20549;-79
2021/08/20 10:34:40;;;;;;;2.83;2.50;;;29.70;41.40;;;;;;6267876;28;20561;-80
2021/08/20 10:37:43;;;;;;;4.25;2.72;;;30.00;40.70;;;;;;6269509;28;20410;-80
2021/08/20 10:41:13;;;;;;;3.00;2.65;;;30.40;40.60;;;;;;6273326;28;20407;-80
2021/08/20 10:44:17;;;;;;;4.63;3.08;;;30.70;40.10;;;;;;6272394;28;20421;-80
2021/08/20 10:47:24;;;;;;;5.22;2.83;;;30.80;38.70;;;;;;6273394;28;20465;-81
2021/08/20 10:50:38;;;;;;;4.20;2.97;;;30.90;38.60;;;;;;6289990;28;20642;-81
2021/08/20 10:53:48;;;;;;;2.88;2.38;;;30.90;38.50;;;;;;6322779;28;20507;-81
2021/08/20 10:56:50;;;;;;;5.25;3.40;;;30.40;38.20;;;;;;6323055;28;20422;-81
2021/08/20 10:59:56;;;;;;;4.30;3.38;;;30.40;39.30;;;;;;6323055;28;20403;-81
2021/08/20 11:02:59;;;;;;;4.50;2.67;;;30.50;39.80;;;;;;6308778;28;20465;-81
2021/08/20 11:06:01;;;;;;;4.10;2.60;;;30.70;39.10;;;;;;6307061;22;20494;-77
2021/08/20 11:09:36;;;;;;;3.92;2.75;;;30.80;38.40;;;;;;6255785;28;20920;-78
2021/08/20 11:12:40;;;;;;;4.53;2.55;;;31.00;38.40;;;;;;6250278;28;20561;-78
2021/08/20 11:15:46;;;;;;;4.30;2.80;;;31.00;38.70;;;;;;6250372;28;20458;-77
2021/08/20 11:18:50;;;;;;;3.53;2.53;;;31.10;38.60;;;;;;6251556;28;20900;-78
2021/08/20 11:21:52;;;;;;;4.73;2.53;;;31.30;36.40;;;;;;6251555;28;20431;-77
2021/08/20 11:25:23;;;;;;;4.78;3.30;;;31.30;36.90;;;;;;6269236;28;20448;-77
2021/08/20 11:28:28;;;;;;;2.92;2.40;;;30.90;36.60;;;;;;6275961;28;20413;-78
2021/08/20 11:31:30;;;;;;;3.80;2.28;;;30.40;38.10;;;;;;6275132;28;20886;-78
2021/08/20 11:34:32;;;;;;;5.40;2.92;;;30.50;38.10;;;;;;6275384;28;20429;-78
2021/08/20 11:37:34;;;;;;;5.00;3.47;;;30.80;37.20;;;;;;6276054;28;20559;-78
2021/08/20 11:40:50;;;;;;;3.72;2.08;;;31.20;36.70;;;;;;6276097;28;20544;-78
2021/08/20 11:43:55;;;;;;;3.85;2.55;;;31.50;37.90;;;;;;6275557;28;20784;-78
2021/08/20 11:46:57;;;;;;;2.90;2.57;;;31.50;35.70;;;;;;6275524;28;20429;-78
2021/08/20 11:50:07;;;;;;;3.08;2.15;;;31.40;34.70;;;;;;6275821;28;20493;-78
2021/08/20 11:53:09;;;;;;;1.88;1.67;;;31.30;36.10;;;;;;6276001;28;20632;-78
2021/08/20 11:56:13;;;;;;;3.70;1.93;;;31.40;33.70;;;;;;6275196;28;20413;-78
2021/08/20 11:59:16;;;;;;;2.63;2.10;;;31.30;35.00;;;;;;6277205;28;20463;-78
2021/08/20 12:02:19;;;;;;;3.17;1.92;;;31.20;34.60;;;;;;6277039;28;20451;-78
2021/08/20 12:05:23;;;;;;;2.10;1.90;;;31.10;33.00;;;;;;6275466;28;20496;-78
2021/08/20 12:08:25;;;;;;;2.30;2.10;;;31.20;33.40;;;;;;6276483;28;20518;-78
2021/08/20 12:11:29;;;;;;;2.20;1.98;;;31.40;32.90;;;;;;6240387;28;20504;-77
2021/08/20 12:14:33;;;;;;;9.23;2.43;;;31.60;31.40;;;;;;6261213;28;20657;-78
2021/08/20 12:17:35;;;;;;;4.28;2.63;;;31.70;33.40;;;;;;6276042;28;20420;-78
2021/08/20 12:20:42;;;;;;;2.90;2.10;;;31.80;32.70;;;;;;6275582;28;20774;-78
2021/08/20 12:23:58;;;;;;;3.08;2.45;;;31.80;34.10;;;;;;6275477;28;20483;-78
2021/08/20 12:27:18;;;;;;;3.38;2.15;;;31.80;33.80;;;;;;6275397;28;20487;-78
2021/08/20 12:30:26;;;;;;;3.28;2.35;;;31.90;32.70;;;;;;6275964;28;20979;-77
2021/08/20 12:33:28;;;;;;;2.63;2.00;;;32.00;32.70;;;;;;6274774;28;20631;-78
2021/08/20 12:36:30;;;;;;;4.27;2.43;;;31.90;32.00;;;;;;6271042;28;20443;-77
2021/08/20 12:39:38;;;;;;;3.03;1.92;;;31.90;32.60;;;;;;6270818;28;20413;-77
2021/08/20 12:42:47;;;;;;;2.53;2.10;;;31.90;33.20;;;;;;6271135;28;20467;-77
2021/08/20 12:46:10;;;;;;;6.57;2.83;;;32.00;32.40;;;;;;6272694;28;20790;-77
2021/08/20 12:49:12;;;;;;;7.00;3.25;;;32.20;30.80;;;;;;6269863;28;20543;-77
2021/08/20 12:52:25;;;;;;;5.80;2.93;;;32.20;32.40;;;;;;6270409;28;20415;-77
2021/08/20 12:55:28;;;;;;;2.85;2.17;;;32.20;32.50;;;;;;6269606;28;20467;-75
2021/08/20 12:58:32;;;;;;;2.38;2.15;;;32.10;33.00;;;;;;6271132;28;20432;-78
2021/08/20 13:01:35;;;;;;;5.60;2.92;;;32.20;33.40;;;;;;6270512;28;20494;-78
2021/08/20 13:04:37;;;;;;;3.30;1.98;;;32.30;33.60;;;;;;6270789;28;20450;-78
2021/08/20 13:07:39;;;;;;;2.90;2.00;;;32.40;31.80;;;;;;6270928;28;20924;-78
2021/08/20 13:10:41;;;;;;;4.20;2.15;;;32.50;31.60;;;;;;6267093;28;20936;-78
2021/08/20 13:13:43;;;;;;;3.90;2.38;;;32.50;31.40;;;;;;6242661;28;20475;-77
2021/08/20 13:16:46;;;;;;;4.37;2.20;;;32.50;32.00;;;;;;6272947;28;20456;-77
2021/08/20 13:19:50;;;;;;;4.00;2.65;;;32.40;32.10;;;;;;6271338;28;20496;-76
2021/08/20 13:22:51;;;;;;;3.00;2.38;;;32.40;31.50;;;;;;6272763;28;20425;-77
2021/08/20 13:25:53;;;;;;;3.47;1.98;;;32.40;30.90;;;;;;6273687;28;20461;-78
2021/08/20 13:28:55;;;;;;;2.50;2.00;;;32.30;30.70;;;;;;6273700;28;20573;-78
2021/08/20 13:31:58;;;;;;;2.63;1.90;;;32.20;30.60;;;;;;6273812;28;20563;-78
2021/08/20 13:35:00;;;;;;;2.50;2.03;;;32.10;31.80;;;;;;6271626;28;20490;-77
2021/08/20 13:38:03;;;;;;;2.25;2.05;;;31.80;33.30;;;;;;6270645;28;20881;-77
2021/08/20 13:41:04;;;;;;;2.87;2.30;;;31.40;33.10;;;;;;6269888;28;20586;-77
2021/08/20 13:44:06;;;;;;;4.07;2.15;;;31.40;32.40;;;;;;6270755;28;20476;-77
2021/08/20 13:47:10;;;;;;;3.13;2.25;;;31.10;33.00;;;;;;6269759;28;20412;-77
2021/08/20 13:50:11;;;;;;;5.35;2.75;;;31.00;34.10;;;;;;6270668;28;20433;-78
2021/08/20 13:53:14;;;;;;;2.55;2.05;;;31.20;34.10;;;;;;6269787;28;20452;-78
2021/08/20 13:56:16;;;;;;;2.10;1.90;;;31.40;33.40;;;;;;6269830;28;20496;-76
2021/08/20 13:59:18;;;;;;;3.97;2.20;;;31.60;33.50;;;;;;6269796;28;20440;-77
2021/08/20 14:02:21;;;;;;;2.85;2.53;;;31.80;32.50;;;;;;6270151;28;20518;-76
2021/08/20 14:05:23;;;;;;;2.75;2.45;;;31.90;32.90;;;;;;6268789;28;20449;-77
2021/08/20 14:08:26;;;;;;;5.22;2.45;;;31.90;32.90;;;;;;6269686;28;20520;-77
2021/08/20 14:11:28;;;;;;;3.30;2.67;;;31.80;33.20;;;;;;6267608;28;20405;-77
2021/08/20 14:14:30;;;;;;;2.92;2.63;;;31.90;33.20;;;;;;6223659;28;20527;-77
2021/08/20 14:17:33;;;;;;;2.08;1.88;;;32.00;32.90;;;;;;6220119;28;20453;-77
2021/08/20 14:20:36;;;;;;;4.35;2.33;;;32.00;32.10;;;;;;6221926;28;20432;-77
2021/08/20 14:23:38;;;;;;;2.33;2.13;;;32.00;32.70;;;;;;6222391;28;20421;-77
2021/08/20 14:26:39;;;;;;;4.47;2.43;;;32.00;32.70;;;;;;6220673;28;20527;-77
2021/08/20 14:29:43;;;;;;;4.07;2.50;;;32.00;32.30;;;;;;6219982;28;20853;-77
2021/08/20 14:32:47;;;;;;;6.18;2.65;;;32.00;32.20;;;;;;6219601;28;20416;-77
2021/08/20 14:35:48;;;;;;;5.72;2.28;;;31.90;32.10;;;;;;6220014;28;20561;-77
2021/08/20 14:38:50;;;;;;;8.93;2.60;;;32.00;32.40;;;;;;6224506;28;20523;-77
2021/08/20 14:41:52;;;;;;;2.85;2.25;;;32.10;32.00;;;;;;6224652;28;20471;-77
2021/08/20 14:44:54;;;;;;;3.97;2.15;;;32.20;31.80;;;;;;6223771;28;20472;-76
2021/08/20 14:47:57;;;;;;;2.50;1.85;;;32.40;31.60;;;;;;6225638;28;20494;-77
2021/08/20 14:50:59;;;;;;;1.92;1.77;;;32.50;31.20;;;;;;6226453;28;20436;-76
2021/08/20 14:54:02;;;;;;;3.72;2.45;;;32.60;30.50;;;;;;6226263;28;20635;-77
2021/08/20 14:57:04;;;;;;;2.60;2.30;;;32.70;31.70;;;;;;6225307;28;20464;-77
2021/08/20 15:00:08;;;;;;;3.10;2.75;;;32.70;31.70;;;;;;6225055;28;20417;-77
2021/08/20 15:03:11;;;;;;;2.88;2.00;;;32.60;32.30;;;;;;6225261;28;20855;-77
2021/08/20 15:06:18;;;;;;;3.47;2.58;;;32.60;32.30;;;;;;6225292;28;21037;-77
2021/08/20 15:09:20;;;;;;;5.00;2.05;;;32.50;33.30;;;;;;6224402;28;20462;-77
2021/08/20 15:12:27;;;;;;;3.85;2.30;;;32.50;33.40;;;;;;6223666;28;20449;-77
2021/08/20 15:15:29;;;;;;;3.97;2.33;;;32.40;33.40;;;;;;6221695;28;20443;-78
2021/08/20 15:18:32;;;;;;;2.90;2.60;;;32.20;33.80;;;;;;6224265;28;20448;-76
2021/08/20 15:21:35;;;;;;;5.53;2.60;;;32.10;34.40;;;;;;6223917;28;20846;-77
2021/08/20 15:24:37;;;;;;;2.60;2.40;;;31.90;34.50;;;;;;6223610;28;20423;-77
2021/08/20 15:27:41;;;;;;;3.00;2.10;;;31.90;34.60;;;;;;6226385;28;20429;-77
2021/08/20 15:30:42;;;;;;;3.60;2.40;;;31.90;35.80;;;;;;6226343;28;20445;-77
2021/08/20 15:33:46;;;;;;;3.13;2.60;;;31.90;34.90;;;;;;6223261;28;20413;-77
2021/08/20 15:36:48;;;;;;;3.33;2.30;;;31.60;34.70;;;;;;6226083;28;20421;-77
2021/08/20 15:39:49;;;;;;;4.53;2.45;;;31.50;34.80;;;;;;6223355;28;20894;-77
2021/08/20 15:42:51;;;;;;;4.20;2.80;;;31.20;35.30;;;;;;6222577;28;21153;-77
2021/08/20 15:45:54;;;;;;;4.82;2.60;;;31.10;35.50;;;;;;6222552;28;20941;-77
2021/08/20 15:48:57;;;;;;;5.93;2.95;;;30.80;35.60;;;;;;6222397;28;20440;-77
2021/08/20 15:51:59;;;;;;;2.65;2.38;;;30.50;36.20;;;;;;6223802;28;20428;-77
2021/08/20 15:55:02;;;;;;;2.67;2.42;;;30.30;36.90;;;;;;6226175;28;20436;-77
2021/08/20 15:58:04;;;;;;;2.88;2.58;;;30.00;37.90;;;;;;6224875;28;21021;-78